sensor_id;sensor_type;location;lat;lon;timestamp;pressure;altitude;pressure_sealevel;temperature;humidity
13593;BME280;6867;50.998;4.250;2023-07-31T00:00:50;101032.66;;;18.61;85.63
13593;BME280;6867;50.998;4.250;2023-07-31T00:03:16;101025.56;;;18.60;85.54
13593;BME280;6867;50.998;4.250;2023-07-31T00:05:43;101018.09;;;18.51;85.56
13593;BME280;6867;50.998;4.250;2023-07-31T00:08:11;101025.31;;;18.62;85.45
13593;BME280;6867;50.998;4.250;2023-07-31T00:10:37;101014.69;;;18.60;85.52
13593;BME280;6867;50.998;4.250;2023-07-31T00:13:04;101011.41;;;18.36;85.79
13593;BME280;6867;50.998;4.250;2023-07-31T00:15:31;101015.97;;;18.53;85.43
13593;BME280;6867;50.998;4.250;2023-07-31T00:17:57;101002.34;;;18.31;85.72
13593;BME280;6867;50.998;4.250;2023-07-31T00:20:24;100997.91;;;18.69;85.11
13593;BME280;6867;50.998;4.250;2023-07-31T00:22:51;101000.63;;;18.47;85.25
13593;BME280;6867;50.998;4.250;2023-07-31T00:25:19;100997.03;;;18.63;85.19
13593;BME280;6867;50.998;4.250;2023-07-31T00:27:46;100990.84;;;18.95;83.91
13593;BME280;6867;50.998;4.250;2023-07-31T00:30:12;100986.22;;;18.95;83.39
13593;BME280;6867;50.998;4.250;2023-07-31T00:32:39;100988.75;;;18.75;83.98
13593;BME280;6867;50.998;4.250;2023-07-31T00:35:06;100993.41;;;18.79;83.70
13593;BME280;6867;50.998;4.250;2023-07-31T00:37:32;100987.66;;;18.76;83.75
13593;BME280;6867;50.998;4.250;2023-07-31T00:39:59;100990.19;;;18.82;83.96
13593;BME280;6867;50.998;4.250;2023-07-31T00:42:27;100982.91;;;18.93;83.54
13593;BME280;6867;50.998;4.250;2023-07-31T00:44:54;100985.13;;;18.96;83.82
13593;BME280;6867;50.998;4.250;2023-07-31T00:47:20;100977.34;;;19.10;82.90
13593;BME280;6867;50.998;4.250;2023-07-31T00:49:47;100980.56;;;19.02;83.86
13593;BME280;6867;50.998;4.250;2023-07-31T00:52:14;100992.44;;;18.90;84.37
13593;BME280;6867;50.998;4.250;2023-07-31T00:54:41;100994.00;;;18.81;85.13
13593;BME280;6867;50.998;4.250;2023-07-31T00:57:08;100998.75;;;18.96;85.27
13593;BME280;6867;50.998;4.250;2023-07-31T00:59:36;100988.31;;;18.88;85.45
13593;BME280;6867;50.998;4.250;2023-07-31T01:02:04;100993.53;;;18.89;85.71
13593;BME280;6867;50.998;4.250;2023-07-31T01:04:31;100981.28;;;18.92;86.33
13593;BME280;6867;50.998;4.250;2023-07-31T01:07:02;100981.69;;;19.06;85.56
13593;BME280;6867;50.998;4.250;2023-07-31T01:09:37;100977.19;;;18.89;86.02
13593;BME280;6867;50.998;4.250;2023-07-31T01:12:07;100977.41;;;18.61;86.98
13593;BME280;6867;50.998;4.250;2023-07-31T01:14:34;100978.38;;;18.72;87.68
13593;BME280;6867;50.998;4.250;2023-07-31T01:17:02;100973.22;;;18.48;87.87
13593;BME280;6867;50.998;4.250;2023-07-31T01:19:28;100981.41;;;18.53;89.34
13593;BME280;6867;50.998;4.250;2023-07-31T01:22:12;100980.31;;;18.76;88.50
13593;BME280;6867;50.998;4.250;2023-07-31T01:24:58;100964.56;;;18.78;88.32
13593;BME280;6867;50.998;4.250;2023-07-31T01:27:32;100969.38;;;18.71;88.53
13593;BME280;6867;50.998;4.250;2023-07-31T01:30:07;100972.16;;;18.76;88.25
13593;BME280;6867;50.998;4.250;2023-07-31T01:32:36;100962.69;;;18.84;87.40
13593;BME280;6867;50.998;4.250;2023-07-31T01:35:06;100964.34;;;18.85;87.38
13593;BME280;6867;50.998;4.250;2023-07-31T01:37:34;100954.03;;;18.87;87.77
13593;BME280;6867;50.998;4.250;2023-07-31T01:40:01;100955.34;;;19.11;87.21
13593;BME280;6867;50.998;4.250;2023-07-31T01:42:27;100956.63;;;19.04;87.19
13593;BME280;6867;50.998;4.250;2023-07-31T01:44:55;100958.28;;;19.10;87.40
13593;BME280;6867;50.998;4.250;2023-07-31T01:47:22;100947.00;;;18.91;87.97
13593;BME280;6867;50.998;4.250;2023-07-31T01:49:49;100949.47;;;18.98;88.11
13593;BME280;6867;50.998;4.250;2023-07-31T01:52:16;100943.63;;;19.11;88.40
13593;BME280;6867;50.998;4.250;2023-07-31T01:54:43;100939.84;;;19.17;87.95
13593;BME280;6867;50.998;4.250;2023-07-31T01:57:09;100934.19;;;19.24;87.90
13593;BME280;6867;50.998;4.250;2023-07-31T01:59:36;100930.56;;;19.13;87.93
13593;BME280;6867;50.998;4.250;2023-07-31T02:02:05;100922.84;;;19.00;88.15
13593;BME280;6867;50.998;4.250;2023-07-31T02:04:32;100921.75;;;19.01;88.40
13593;BME280;6867;50.998;4.250;2023-07-31T02:06:59;100911.50;;;19.13;88.09
13593;BME280;6867;50.998;4.250;2023-07-31T02:09:26;100920.59;;;18.91;89.41
13593;BME280;6867;50.998;4.250;2023-07-31T02:11:52;100918.91;;;18.85;89.61
13593;BME280;6867;50.998;4.250;2023-07-31T02:14:19;100906.84;;;18.76;89.80
13593;BME280;6867;50.998;4.250;2023-07-31T02:16:46;100903.78;;;19.00;89.56
13593;BME280;6867;50.998;4.250;2023-07-31T02:19:14;100909.72;;;18.97;89.31
13593;BME280;6867;50.998;4.250;2023-07-31T02:21:40;100898.38;;;19.05;89.37
13593;BME280;6867;50.998;4.250;2023-07-31T02:24:07;100897.16;;;18.85;89.79
13593;BME280;6867;50.998;4.250;2023-07-31T02:26:33;100891.72;;;18.90;89.37
13593;BME280;6867;50.998;4.250;2023-07-31T02:29:00;100886.78;;;19.20;88.49
13593;BME280;6867;50.998;4.250;2023-07-31T02:31:27;100882.25;;;19.35;87.36
13593;BME280;6867;50.998;4.250;2023-07-31T02:33:53;100888.75;;;19.29;87.33
13593;BME280;6867;50.998;4.250;2023-07-31T02:36:21;100880.38;;;18.99;88.57
13593;BME280;6867;50.998;4.250;2023-07-31T02:38:48;100876.28;;;19.01;88.65
13593;BME280;6867;50.998;4.250;2023-07-31T02:41:15;100865.78;;;19.15;87.84
13593;BME280;6867;50.998;4.250;2023-07-31T02:43:41;100868.75;;;19.13;88.14
13593;BME280;6867;50.998;4.250;2023-07-31T02:46:09;100856.75;;;19.09;88.42
13593;BME280;6867;50.998;4.250;2023-07-31T02:48:36;100863.25;;;19.03;88.42
13593;BME280;6867;50.998;4.250;2023-07-31T02:51:02;100862.28;;;19.20;87.64
13593;BME280;6867;50.998;4.250;2023-07-31T02:53:30;100862.19;;;19.09;87.73
13593;BME280;6867;50.998;4.250;2023-07-31T02:55:57;100861.72;;;19.23;87.54
13593;BME280;6867;50.998;4.250;2023-07-31T02:58:23;100851.44;;;19.30;87.24
13593;BME280;6867;50.998;4.250;2023-07-31T03:00:50;100857.38;;;19.22;87.96
13593;BME280;6867;50.998;4.250;2023-07-31T03:03:17;100853.53;;;19.17;88.15
13593;BME280;6867;50.998;4.250;2023-07-31T03:05:43;100852.34;;;19.46;87.18
13593;BME280;6867;50.998;4.250;2023-07-31T03:08:10;100850.34;;;19.31;87.96
13593;BME280;6867;50.998;4.250;2023-07-31T03:10:38;100853.66;;;19.38;88.00
13593;BME280;6867;50.998;4.250;2023-07-31T03:13:04;100855.59;;;19.42;87.50
13593;BME280;6867;50.998;4.250;2023-07-31T03:15:31;100851.25;;;19.47;87.86
13593;BME280;6867;50.998;4.250;2023-07-31T03:17:58;100848.69;;;19.25;88.38
13593;BME280;6867;50.998;4.250;2023-07-31T03:20:24;100847.34;;;19.27;88.67
13593;BME280;6867;50.998;4.250;2023-07-31T03:22:51;100847.25;;;19.12;89.38
13593;BME280;6867;50.998;4.250;2023-07-31T03:25:18;100844.31;;;19.24;88.77
13593;BME280;6867;50.998;4.250;2023-07-31T03:27:46;100839.94;;;19.23;89.53
13593;BME280;6867;50.998;4.250;2023-07-31T03:30:12;100843.22;;;19.20;89.66
13593;BME280;6867;50.998;4.250;2023-07-31T03:32:39;100833.94;;;19.15;90.27
13593;BME280;6867;50.998;4.250;2023-07-31T03:35:06;100831.13;;;19.05;91.01
13593;BME280;6867;50.998;4.250;2023-07-31T03:37:33;100836.06;;;19.08;91.80
13593;BME280;6867;50.998;4.250;2023-07-31T03:39:59;100826.84;;;19.14;91.52
13593;BME280;6867;50.998;4.250;2023-07-31T03:42:26;100818.00;;;18.97;92.38
13593;BME280;6867;50.998;4.250;2023-07-31T03:44:54;100821.66;;;19.13;92.30
13593;BME280;6867;50.998;4.250;2023-07-31T03:47:21;100816.16;;;19.03;92.70
13593;BME280;6867;50.998;4.250;2023-07-31T03:49:47;100815.38;;;19.07;93.07
13593;BME280;6867;50.998;4.250;2023-07-31T03:52:14;100814.44;;;18.91;93.47
13593;BME280;6867;50.998;4.250;2023-07-31T03:54:41;100812.16;;;18.78;94.14
13593;BME280;6867;50.998;4.250;2023-07-31T03:57:09;100815.69;;;18.47;96.08
13593;BME280;6867;50.998;4.250;2023-07-31T03:59:36;100804.91;;;18.57;96.65
13593;BME280;6867;50.998;4.250;2023-07-31T04:02:05;100801.59;;;18.82;96.10
13593;BME280;6867;50.998;4.250;2023-07-31T04:04:32;100799.69;;;18.82;95.86
13593;BME280;6867;50.998;4.250;2023-07-31T04:06:58;100796.69;;;18.52;96.97
13593;BME280;6867;50.998;4.250;2023-07-31T04:09:25;100798.66;;;18.56;97.93
13593;BME280;6867;50.998;4.250;2023-07-31T04:11:51;100786.09;;;18.55;97.78
13593;BME280;6867;50.998;4.250;2023-07-31T04:14:18;100774.88;;;18.74;97.01
13593;BME280;6867;50.998;4.250;2023-07-31T04:16:45;100775.16;;;18.77;97.06
13593;BME280;6867;50.998;4.250;2023-07-31T04:19:13;100777.53;;;18.69;97.55
13593;BME280;6867;50.998;4.250;2023-07-31T04:21:41;100785.47;;;18.75;97.57
13593;BME280;6867;50.998;4.250;2023-07-31T04:24:08;100776.63;;;18.58;97.53
13593;BME280;6867;50.998;4.250;2023-07-31T04:26:35;100775.31;;;18.65;98.47
13593;BME280;6867;50.998;4.250;2023-07-31T04:29:01;100778.44;;;18.47;99.00
13593;BME280;6867;50.998;4.250;2023-07-31T04:31:28;100769.28;;;18.58;99.74
13593;BME280;6867;50.998;4.250;2023-07-31T04:33:55;100772.84;;;18.64;99.08
13593;BME280;6867;50.998;4.250;2023-07-31T04:36:23;100771.31;;;18.73;98.98
13593;BME280;6867;50.998;4.250;2023-07-31T04:38:49;100768.03;;;18.71;98.47
13593;BME280;6867;50.998;4.250;2023-07-31T04:41:16;100767.47;;;18.69;98.80
13593;BME280;6867;50.998;4.250;2023-07-31T04:43:42;100767.97;;;18.66;98.85
13593;BME280;6867;50.998;4.250;2023-07-31T04:46:09;100767.13;;;18.60;99.17
13593;BME280;6867;50.998;4.250;2023-07-31T04:48:36;100772.91;;;18.69;99.10
13593;BME280;6867;50.998;4.250;2023-07-31T04:51:02;100758.25;;;18.70;98.94
13593;BME280;6867;50.998;4.250;2023-07-31T04:53:30;100760.78;;;18.82;98.68
13593;BME280;6867;50.998;4.250;2023-07-31T04:55:57;100754.44;;;18.76;98.26
13593;BME280;6867;50.998;4.250;2023-07-31T04:58:24;100757.16;;;18.71;98.50
13593;BME280;6867;50.998;4.250;2023-07-31T05:00:50;100743.81;;;18.70;98.58
13593;BME280;6867;50.998;4.250;2023-07-31T05:03:17;100745.38;;;18.65;98.67
13593;BME280;6867;50.998;4.250;2023-07-31T05:05:43;100744.50;;;18.60;98.87
13593;BME280;6867;50.998;4.250;2023-07-31T05:08:10;100748.56;;;18.52;98.84
13593;BME280;6867;50.998;4.250;2023-07-31T05:10:38;100742.38;;;18.62;99.26
13593;BME280;6867;50.998;4.250;2023-07-31T05:13:05;100737.22;;;18.28;99.53
13593;BME280;6867;50.998;4.250;2023-07-31T05:15:31;100731.13;;;18.48;99.88
13593;BME280;6867;50.998;4.250;2023-07-31T05:17:58;100731.97;;;18.54;99.67
13593;BME280;6867;50.998;4.250;2023-07-31T05:20:25;100730.56;;;18.46;100.00
13593;BME280;6867;50.998;4.250;2023-07-31T05:22:53;100725.09;;;18.41;100.00
13593;BME280;6867;50.998;4.250;2023-07-31T05:25:19;100726.81;;;18.52;100.00
13593;BME280;6867;50.998;4.250;2023-07-31T05:27:47;100728.78;;;18.67;99.18
13593;BME280;6867;50.998;4.250;2023-07-31T05:30:14;100732.44;;;18.40;99.81
13593;BME280;6867;50.998;4.250;2023-07-31T05:32:40;100728.28;;;18.33;100.00
13593;BME280;6867;50.998;4.250;2023-07-31T05:35:07;100734.19;;;18.57;99.79
13593;BME280;6867;50.998;4.250;2023-07-31T05:37:34;100727.53;;;18.42;99.55
13593;BME280;6867;50.998;4.250;2023-07-31T05:40:01;100736.94;;;18.62;99.63
13593;BME280;6867;50.998;4.250;2023-07-31T05:42:28;100730.38;;;18.58;99.15
13593;BME280;6867;50.998;4.250;2023-07-31T05:44:56;100723.31;;;18.57;99.73
13593;BME280;6867;50.998;4.250;2023-07-31T05:47:22;100714.81;;;18.48;98.77
13593;BME280;6867;50.998;4.250;2023-07-31T05:49:49;100713.44;;;18.51;99.21
13593;BME280;6867;50.998;4.250;2023-07-31T05:52:17;100716.06;;;18.73;99.08
13593;BME280;6867;50.998;4.250;2023-07-31T05:54:44;100716.41;;;18.81;98.45
13593;BME280;6867;50.998;4.250;2023-07-31T05:57:12;100711.13;;;18.64;97.93
13593;BME280;6867;50.998;4.250;2023-07-31T05:59:38;100720.63;;;18.67;98.21
13593;BME280;6867;50.998;4.250;2023-07-31T06:02:06;100710.41;;;18.79;97.79
13593;BME280;6867;50.998;4.250;2023-07-31T06:04:33;100713.47;;;18.93;97.04
13593;BME280;6867;50.998;4.250;2023-07-31T06:07:00;100716.00;;;19.10;96.35
13593;BME280;6867;50.998;4.250;2023-07-31T06:09:27;100717.56;;;18.96;95.74
13593;BME280;6867;50.998;4.250;2023-07-31T06:11:53;100712.66;;;18.92;95.57
13593;BME280;6867;50.998;4.250;2023-07-31T06:14:20;100715.31;;;18.82;95.56
13593;BME280;6867;50.998;4.250;2023-07-31T06:16:47;100719.69;;;18.88;95.57
13593;BME280;6867;50.998;4.250;2023-07-31T06:19:15;100708.50;;;18.85;96.13
13593;BME280;6867;50.998;4.250;2023-07-31T06:21:41;100715.16;;;19.09;95.34
13593;BME280;6867;50.998;4.250;2023-07-31T06:24:09;100710.84;;;19.13;94.62
13593;BME280;6867;50.998;4.250;2023-07-31T06:26:37;100694.59;;;19.39;94.22
13593;BME280;6867;50.998;4.250;2023-07-31T06:29:04;100700.28;;;19.32;93.56
13593;BME280;6867;50.998;4.250;2023-07-31T06:31:30;100708.31;;;19.02;94.13
13593;BME280;6867;50.998;4.250;2023-07-31T06:33:57;100710.59;;;19.20;94.28
13593;BME280;6867;50.998;4.250;2023-07-31T06:36:25;100693.28;;;19.57;92.92
13593;BME280;6867;50.998;4.250;2023-07-31T06:38:52;100698.69;;;19.36;92.45
13593;BME280;6867;50.998;4.250;2023-07-31T06:41:18;100688.88;;;19.35;92.22
13593;BME280;6867;50.998;4.250;2023-07-31T06:43:45;100678.22;;;19.24;91.94
13593;BME280;6867;50.998;4.250;2023-07-31T06:46:12;100677.47;;;19.54;91.23
13593;BME280;6867;50.998;4.250;2023-07-31T06:48:38;100678.59;;;19.63;91.70
13593;BME280;6867;50.998;4.250;2023-07-31T06:51:05;100679.16;;;19.75;90.64
13593;BME280;6867;50.998;4.250;2023-07-31T06:53:33;100667.72;;;19.83;90.64
13593;BME280;6867;50.998;4.250;2023-07-31T06:56:00;100673.19;;;19.99;89.92
13593;BME280;6867;50.998;4.250;2023-07-31T06:58:26;100670.72;;;20.33;88.32
13593;BME280;6867;50.998;4.250;2023-07-31T07:00:53;100666.56;;;20.71;86.26
13593;BME280;6867;50.998;4.250;2023-07-31T07:03:20;100667.09;;;20.78;85.22
13593;BME280;6867;50.998;4.250;2023-07-31T07:05:46;100658.34;;;20.86;84.47
13593;BME280;6867;50.998;4.250;2023-07-31T07:08:13;100659.66;;;20.94;83.59
13593;BME280;6867;50.998;4.250;2023-07-31T07:10:41;100657.34;;;21.22;82.45
13593;BME280;6867;50.998;4.250;2023-07-31T07:13:08;100666.34;;;21.22;82.54
13593;BME280;6867;50.998;4.250;2023-07-31T07:15:34;100660.13;;;21.11;82.02
13593;BME280;6867;50.998;4.250;2023-07-31T07:18:02;100668.91;;;20.98;81.58
13593;BME280;6867;50.998;4.250;2023-07-31T07:20:28;100674.50;;;20.47;83.04
13593;BME280;6867;50.998;4.250;2023-07-31T07:22:55;100676.47;;;20.11;84.57
13593;BME280;6867;50.998;4.250;2023-07-31T07:25:22;100680.81;;;19.92;86.47
13593;BME280;6867;50.998;4.250;2023-07-31T07:27:50;100689.44;;;19.48;87.92
13593;BME280;6867;50.998;4.250;2023-07-31T07:30:16;100685.88;;;19.47;88.38
13593;BME280;6867;50.998;4.250;2023-07-31T07:32:43;100689.78;;;19.61;88.16
13593;BME280;6867;50.998;4.250;2023-07-31T07:35:10;100679.16;;;19.85;87.90
13593;BME280;6867;50.998;4.250;2023-07-31T07:37:36;100674.56;;;19.91;87.14
13593;BME280;6867;50.998;4.250;2023-07-31T07:40:04;100681.63;;;19.87;86.83
13593;BME280;6867;50.998;4.250;2023-07-31T07:42:30;100672.38;;;19.88;86.64
13593;BME280;6867;50.998;4.250;2023-07-31T07:44:59;100677.53;;;19.84;87.23
13593;BME280;6867;50.998;4.250;2023-07-31T07:47:26;100665.56;;;19.90;85.77
13593;BME280;6867;50.998;4.250;2023-07-31T07:49:52;100667.16;;;20.43;84.56
13593;BME280;6867;50.998;4.250;2023-07-31T07:52:19;100658.13;;;20.47;83.84
13593;BME280;6867;50.998;4.250;2023-07-31T07:54:46;100666.19;;;20.98;82.76
13593;BME280;6867;50.998;4.250;2023-07-31T07:57:12;100673.09;;;20.80;82.93
13593;BME280;6867;50.998;4.250;2023-07-31T07:59:40;100659.06;;;21.57;81.66
13593;BME280;6867;50.998;4.250;2023-07-31T08:02:08;100647.97;;;21.43;78.81
13593;BME280;6867;50.998;4.250;2023-07-31T08:04:34;100653.09;;;21.55;78.73
13593;BME280;6867;50.998;4.250;2023-07-31T08:07:01;100658.00;;;21.92;78.19
13593;BME280;6867;50.998;4.250;2023-07-31T08:09:28;100644.19;;;22.12;76.41
13593;BME280;6867;50.998;4.250;2023-07-31T08:11:54;100636.41;;;22.49;74.30
13593;BME280;6867;50.998;4.250;2023-07-31T08:14:23;100643.81;;;22.19;75.07
13593;BME280;6867;50.998;4.250;2023-07-31T08:16:49;100677.84;;;21.14;78.21
13593;BME280;6867;50.998;4.250;2023-07-31T08:19:17;100673.06;;;21.50;78.25
13593;BME280;6867;50.998;4.250;2023-07-31T08:21:44;100667.19;;;21.18;78.62
13593;BME280;6867;50.998;4.250;2023-07-31T08:24:11;100665.84;;;21.15;78.46
13593;BME280;6867;50.998;4.250;2023-07-31T08:26:37;100659.78;;;21.28;77.82
13593;BME280;6867;50.998;4.250;2023-07-31T08:29:04;100653.03;;;21.16;77.78
13593;BME280;6867;50.998;4.250;2023-07-31T08:31:31;100678.16;;;21.12;79.42
13593;BME280;6867;50.998;4.250;2023-07-31T08:33:57;100686.31;;;21.18;79.97
13593;BME280;6867;50.998;4.250;2023-07-31T08:36:26;100665.94;;;21.54;78.73
13593;BME280;6867;50.998;4.250;2023-07-31T08:38:52;100665.25;;;21.23;79.42
13593;BME280;6867;50.998;4.250;2023-07-31T08:41:19;100649.69;;;22.07;77.63
13593;BME280;6867;50.998;4.250;2023-07-31T08:43:46;100652.47;;;22.31;76.46
13593;BME280;6867;50.998;4.250;2023-07-31T08:46:13;100636.81;;;22.08;74.98
13593;BME280;6867;50.998;4.250;2023-07-31T08:48:42;100646.31;;;22.45;74.81
13593;BME280;6867;50.998;4.250;2023-07-31T08:51:09;100650.34;;;22.23;75.44
13593;BME280;6867;50.998;4.250;2023-07-31T08:53:37;100643.94;;;22.38;74.45
13593;BME280;6867;50.998;4.250;2023-07-31T08:56:06;100660.88;;;21.72;76.92
13593;BME280;6867;50.998;4.250;2023-07-31T08:58:34;100649.66;;;22.12;76.07
13593;BME280;6867;50.998;4.250;2023-07-31T09:01:04;100633.78;;;22.92;74.74
13593;BME280;6867;50.998;4.250;2023-07-31T09:03:33;100630.03;;;22.82;73.76
13593;BME280;6867;50.998;4.250;2023-07-31T09:06:02;100640.91;;;23.30;72.15
13593;BME280;6867;50.998;4.250;2023-07-31T09:08:30;100623.31;;;23.88;70.92
13593;BME280;6867;50.998;4.250;2023-07-31T09:11:01;100608.00;;;24.47;68.60
13593;BME280;6867;50.998;4.250;2023-07-31T09:13:29;100606.47;;;23.95;69.33
13593;BME280;6867;50.998;4.250;2023-07-31T09:15:56;100624.63;;;23.58;69.97
13593;BME280;6867;50.998;4.250;2023-07-31T09:18:23;100618.50;;;22.61;70.72
13593;BME280;6867;50.998;4.250;2023-07-31T09:21:00;100622.78;;;22.44;72.76
13593;BME280;6867;50.998;4.250;2023-07-31T09:23:40;100621.63;;;22.74;72.00
13593;BME280;6867;50.998;4.250;2023-07-31T09:26:08;100636.38;;;21.96;74.51
13593;BME280;6867;50.998;4.250;2023-07-31T09:28:35;100636.19;;;21.48;75.40
13593;BME280;6867;50.998;4.250;2023-07-31T09:31:02;100626.53;;;21.95;75.79
13593;BME280;6867;50.998;4.250;2023-07-31T09:33:28;100631.88;;;21.31;77.66
13593;BME280;6867;50.998;4.250;2023-07-31T09:35:58;100630.75;;;22.11;77.03
13593;BME280;6867;50.998;4.250;2023-07-31T09:38:25;100624.41;;;22.21;76.21
13593;BME280;6867;50.998;4.250;2023-07-31T09:40:51;100620.75;;;21.67;78.09
13593;BME280;6867;50.998;4.250;2023-07-31T09:43:20;100611.59;;;22.64;75.48
13593;BME280;6867;50.998;4.250;2023-07-31T09:45:48;100600.44;;;22.36;74.35
13593;BME280;6867;50.998;4.250;2023-07-31T09:48:16;100605.56;;;22.43;74.89
13593;BME280;6867;50.998;4.250;2023-07-31T09:53:10;100617.19;;;22.30;75.13
13593;BME280;6867;50.998;4.250;2023-07-31T09:55:38;100628.34;;;22.04;76.26
13593;BME280;6867;50.998;4.250;2023-07-31T09:58:06;100618.81;;;21.68;77.40
13593;BME280;6867;50.998;4.250;2023-07-31T10:00:35;100609.72;;;21.77;78.05
13593;BME280;6867;50.998;4.250;2023-07-31T10:03:04;100619.16;;;21.95;78.14
13593;BME280;6867;50.998;4.250;2023-07-31T10:05:34;100614.75;;;22.28;77.40
13593;BME280;6867;50.998;4.250;2023-07-31T10:08:01;100625.69;;;22.76;76.75
13593;BME280;6867;50.998;4.250;2023-07-31T10:10:28;100628.28;;;22.92;76.52
13593;BME280;6867;50.998;4.250;2023-07-31T10:12:56;100626.06;;;22.94;76.36
13593;BME280;6867;50.998;4.250;2023-07-31T10:15:23;100621.09;;;22.48;76.94
13593;BME280;6867;50.998;4.250;2023-07-31T10:17:54;100627.09;;;22.74;77.09
13593;BME280;6867;50.998;4.250;2023-07-31T10:20:21;100604.03;;;22.80;75.18
13593;BME280;6867;50.998;4.250;2023-07-31T10:22:48;100611.84;;;22.20;76.88
13593;BME280;6867;50.998;4.250;2023-07-31T10:25:15;100610.78;;;22.40;76.66
13593;BME280;6867;50.998;4.250;2023-07-31T10:27:42;100616.97;;;22.74;76.29
13593;BME280;6867;50.998;4.250;2023-07-31T10:30:11;100615.94;;;22.70;76.35
13593;BME280;6867;50.998;4.250;2023-07-31T10:32:40;100610.22;;;22.43;76.39
13593;BME280;6867;50.998;4.250;2023-07-31T10:35:09;100618.19;;;22.10;77.63
13593;BME280;6867;50.998;4.250;2023-07-31T10:37:37;100621.56;;;22.31;77.45
13593;BME280;6867;50.998;4.250;2023-07-31T10:40:06;100613.91;;;22.28;77.91
13593;BME280;6867;50.998;4.250;2023-07-31T10:42:34;100615.09;;;22.22;77.76
13593;BME280;6867;50.998;4.250;2023-07-31T10:45:03;100610.34;;;22.32;77.87
13593;BME280;6867;50.998;4.250;2023-07-31T10:47:31;100598.47;;;22.66;76.68
13593;BME280;6867;50.998;4.250;2023-07-31T10:50:17;100594.88;;;22.66;76.15
13593;BME280;6867;50.998;4.250;2023-07-31T10:52:49;100606.59;;;22.71;75.80
13593;BME280;6867;50.998;4.250;2023-07-31T10:55:24;100597.50;;;22.28;77.09
13593;BME280;6867;50.998;4.250;2023-07-31T10:57:51;100584.16;;;22.69;76.98
13593;BME280;6867;50.998;4.250;2023-07-31T11:00:20;100566.84;;;22.98;74.92
13593;BME280;6867;50.998;4.250;2023-07-31T11:03:03;100579.47;;;22.75;75.63
13593;BME280;6867;50.998;4.250;2023-07-31T11:05:46;100573.94;;;23.36;73.83
13593;BME280;6867;50.998;4.250;2023-07-31T11:08:14;100570.47;;;23.31;74.52
13593;BME280;6867;50.998;4.250;2023-07-31T11:10:42;100557.66;;;23.78;72.59
13593;BME280;6867;50.998;4.250;2023-07-31T11:13:09;100560.13;;;23.93;70.63
13593;BME280;6867;50.998;4.250;2023-07-31T11:15:36;100553.59;;;23.75;71.09
13593;BME280;6867;50.998;4.250;2023-07-31T11:18:03;100550.19;;;23.97;71.02
13593;BME280;6867;50.998;4.250;2023-07-31T11:20:31;100558.06;;;23.52;71.86
13593;BME280;6867;50.998;4.250;2023-07-31T11:23:01;100553.94;;;23.36;72.54
13593;BME280;6867;50.998;4.250;2023-07-31T11:25:29;100564.34;;;22.77;74.11
13593;BME280;6867;50.998;4.250;2023-07-31T11:27:56;100560.94;;;23.09;74.17
13593;BME280;6867;50.998;4.250;2023-07-31T11:30:23;100550.69;;;23.15;74.51
13593;BME280;6867;50.998;4.250;2023-07-31T11:32:50;100527.91;;;23.85;72.00
13593;BME280;6867;50.998;4.250;2023-07-31T11:35:17;100523.59;;;24.53;70.60
13593;BME280;6867;50.998;4.250;2023-07-31T11:37:44;100525.44;;;24.16;71.12
13593;BME280;6867;50.998;4.250;2023-07-31T11:40:12;100543.63;;;23.47;72.16
13593;BME280;6867;50.998;4.250;2023-07-31T11:42:39;100548.03;;;23.61;73.08
13593;BME280;6867;50.998;4.250;2023-07-31T11:45:07;100540.94;;;23.60;72.58
13593;BME280;6867;50.998;4.250;2023-07-31T11:47:35;100554.44;;;22.62;74.85
13593;BME280;6867;50.998;4.250;2023-07-31T11:50:03;100543.97;;;23.26;74.53
13593;BME280;6867;50.998;4.250;2023-07-31T11:52:33;100551.84;;;22.71;75.55
13593;BME280;6867;50.998;4.250;2023-07-31T11:55:00;100562.66;;;22.38;78.26
13593;BME280;6867;50.998;4.250;2023-07-31T11:57:29;100550.47;;;22.50;77.86
13593;BME280;6867;50.998;4.250;2023-07-31T11:59:56;100530.97;;;22.99;76.66
13593;BME280;6867;50.998;4.250;2023-07-31T12:02:24;100514.63;;;23.27;76.00
13593;BME280;6867;50.998;4.250;2023-07-31T12:04:51;100500.28;;;23.49;74.47
13593;BME280;6867;50.998;4.250;2023-07-31T12:07:17;100481.09;;;23.81;73.22
13593;BME280;6867;50.998;4.250;2023-07-31T12:09:52;100476.94;;;24.25;71.66
13593;BME280;6867;50.998;4.250;2023-07-31T12:12:20;100463.41;;;24.43;71.04
13593;BME280;6867;50.998;4.250;2023-07-31T12:14:48;100451.31;;;24.44;69.55
13593;BME280;6867;50.998;4.250;2023-07-31T12:17:17;100462.06;;;24.90;68.24
13593;BME280;6867;50.998;4.250;2023-07-31T12:19:45;100463.34;;;24.70;68.27
13593;BME280;6867;50.998;4.250;2023-07-31T12:22:12;100455.88;;;25.07;67.26
13593;BME280;6867;50.998;4.250;2023-07-31T12:24:39;100458.94;;;25.05;67.20
13593;BME280;6867;50.998;4.250;2023-07-31T12:27:10;100445.25;;;24.69;67.04
13593;BME280;6867;50.998;4.250;2023-07-31T12:29:38;100472.06;;;24.08;69.00
13593;BME280;6867;50.998;4.250;2023-07-31T12:32:19;100453.44;;;24.19;69.37
13593;BME280;6867;50.998;4.250;2023-07-31T12:34:46;100455.59;;;23.95;69.45
13593;BME280;6867;50.998;4.250;2023-07-31T12:37:13;100476.75;;;24.08;69.75
13593;BME280;6867;50.998;4.250;2023-07-31T12:39:40;100469.63;;;24.21;69.47
13593;BME280;6867;50.998;4.250;2023-07-31T12:42:07;100461.06;;;24.86;68.55
13593;BME280;6867;50.998;4.250;2023-07-31T12:44:32;100462.59;;;24.78;67.96
13593;BME280;6867;50.998;4.250;2023-07-31T12:46:59;100469.50;;;24.90;67.89
13593;BME280;6867;50.998;4.250;2023-07-31T12:49:27;100475.41;;;24.19;68.84
13593;BME280;6867;50.998;4.250;2023-07-31T12:51:53;100491.78;;;23.83;71.37
13593;BME280;6867;50.998;4.250;2023-07-31T12:54:20;100500.19;;;22.83;74.64
13593;BME280;6867;50.998;4.250;2023-07-31T12:56:47;100492.56;;;23.18;74.73
13593;BME280;6867;50.998;4.250;2023-07-31T12:59:14;100483.72;;;23.07;74.86
13593;BME280;6867;50.998;4.250;2023-07-31T13:01:40;100500.78;;;22.61;76.50
13593;BME280;6867;50.998;4.250;2023-07-31T13:04:07;100507.13;;;22.57;77.79